Yves Jacob — A8VX6 — position and weather

sailwx.info

Track history (hours):
 
Tides and Currents Weather Stations Pressure Air Temp Water Temp Dewpoint Dewpoint Depression Visibility Wind Speed Wind Dir Waves Ship Positions

Yves Jacob

Last reported at 2017-Oct-20 04:34 UTC. Time now 2017-Nov-23 02:03 UTC.
Position N 33°54' E 035°13'.
Warning: this ship's position is 33 days out of date.

Length 228 m; draft 8.3 m.

Type: Ship. MMSI: 636092052.

Date/timePositionNaut miles runAvg speedWind from/ knotsBaromVisibWave heightAir tempDewpointWater temp
2017-Oct-20 04:34N 33°54' E 035°13'5612.5
2017-Oct-20 00:04N 34°15' E 034°10'112.8
2017-Oct-19 23:58N 34°15' E 034°08'912.8
2017-Oct-19 23:17N 34°18' E 033°58'412.9
2017-Oct-19 22:58N 34°20' E 033°54'812.9
2017-Oct-19 22:23N 34°22' E 033°45'612.8
2017-Oct-19 21:57N 34°24' E 033°39'1012.8
2017-Oct-19 21:09N 34°28' E 033°27'9 8.4
2017-Oct-19 20:04N 34°30' E 033°16'0 2.2
2017-Oct-19 20:00N 34°30' E 033°16'4 1.0
2017-Oct-19 15:45N 34°26' E 033°18'1 0.5
2017-Oct-19 14:35N 34°26' E 033°18'0 0.3
2017-Oct-19 14:30N 34°26' E 033°18'0 0.3
2017-Oct-19 14:00N 34°26' E 033°18'0 0.2
2017-Oct-19 13:25N 34°26' E 033°17'0 0.1
2017-Oct-19 13:00N 34°26' E 033°17'0 0.1
2017-Oct-19 12:30N 34°26' E 033°17'0 0.0
2017-Oct-19 11:55N 34°26' E 033°17'3 0.2
2017-Oct-18 23:28N 34°29' E 033°19'0 0.5
2017-Oct-18 22:59N 34°29' E 033°19'0 0.4
2017-Oct-18 22:18N 34°29' E 033°20'0 0.3
2017-Oct-18 22:00N 34°29' E 033°20'0 0.3
2017-Oct-18 21:30N 34°29' E 033°20'0 0.3
2017-Oct-18 21:00N 34°29' E 033°20'1 0.2
2017-Oct-18 17:39N 34°29' E 033°21'0 0.2
2017-Oct-18 17:30N 34°29' E 033°21'0 0.4
2017-Oct-18 17:00N 34°29' E 033°21'1 0.9
2017-Oct-18 16:28N 34°29' E 033°21'  
Track history (hours):
 
Tides and Currents Weather Stations Pressure Air Temp Water Temp Dewpoint Dewpoint Depression Visibility Wind Speed Wind Dir Waves Ship Positions

Yves Jacob

Last reported at 2017-Oct-20 04:34 UTC. Time now 2017-Nov-23 02:03 UTC.
Position N 33°54' E 035°13'.
Warning: this ship's position is 33 days out of date.

Length 228 m; draft 8.3 m.

Type: Ship. MMSI: 636092052.

Date/timePositionNaut miles runAvg speedWind from/ knotsBaromVisibWave heightAir tempDewpointWater temp
2017-Oct-20 04:34N 33°54' E 035°13'5612.5
2017-Oct-20 00:04N 34°15' E 034°10'112.8
2017-Oct-19 23:58N 34°15' E 034°08'912.8
2017-Oct-19 23:17N 34°18' E 033°58'412.9
2017-Oct-19 22:58N 34°20' E 033°54'812.9
2017-Oct-19 22:23N 34°22' E 033°45'612.8
2017-Oct-19 21:57N 34°24' E 033°39'1012.8
2017-Oct-19 21:09N 34°28' E 033°27'9 8.4
2017-Oct-19 20:04N 34°30' E 033°16'0 2.2
2017-Oct-19 20:00N 34°30' E 033°16'4 1.0
2017-Oct-19 15:45N 34°26' E 033°18'1 0.5
2017-Oct-19 14:35N 34°26' E 033°18'0 0.3
2017-Oct-19 14:30N 34°26' E 033°18'0 0.3
2017-Oct-19 14:00N 34°26' E 033°18'0 0.2
2017-Oct-19 13:25N 34°26' E 033°17'0 0.1
2017-Oct-19 13:00N 34°26' E 033°17'0 0.1
2017-Oct-19 12:30N 34°26' E 033°17'0 0.0
2017-Oct-19 11:55N 34°26' E 033°17'3 0.2
2017-Oct-18 23:28N 34°29' E 033°19'0 0.5
2017-Oct-18 22:59N 34°29' E 033°19'0 0.4
2017-Oct-18 22:18N 34°29' E 033°20'0 0.3
2017-Oct-18 22:00N 34°29' E 033°20'0 0.3
2017-Oct-18 21:30N 34°29' E 033°20'0 0.3
2017-Oct-18 21:00N 34°29' E 033°20'1 0.2
2017-Oct-18 17:39N 34°29' E 033°21'0 0.2
2017-Oct-18 17:30N 34°29' E 033°21'0 0.4
2017-Oct-18 17:00N 34°29' E 033°21'1 0.9
2017-Oct-18 16:28N 34°29' E 033°21'  

Dump ship's entire track history